Time;durP1;ratioP1;P1;durP2;ratioP2;P2;SDS_P1;SDS_P2;PMS_P1;PMS_P2;Temp;Humidity;BMP_temperature;BMP_pressure;BME280_temperature;BME280_humidity;BME280_pressure;Samples;Min_cycle;Max_cycle;Signal;HPM_P1;HPM_P2
2022/03/14 00:02:28;;;;;;;29.30;16.10;;;;;;;-0.66;52.45;97675.63;108035;1271;41662;-73
2022/03/14 00:05:00;;;;;;;30.90;17.20;;;;;;;-0.70;52.36;97674.66;108029;1270;39325;-73
2022/03/14 00:07:31;;;;;;;32.40;16.20;;;;;;;-0.76;52.50;97676.17;108078;1270;44942;-73
2022/03/14 00:10:02;;;;;;;27.40;15.70;;;;;;;-0.78;52.54;97673.91;107979;1270;47325;-73
2022/03/14 00:12:33;;;;;;;32.10;15.70;;;;;;;-0.82;52.69;97672.61;108074;1270;39933;-72
2022/03/14 00:15:08;;;;;;;27.60;15.80;;;;;;;-0.83;52.72;97673.89;108059;1270;31146;-72
2022/03/14 00:17:40;;;;;;;27.20;14.40;;;;;;;-0.81;52.77;97677.24;108086;1270;28590;-72
2022/03/14 00:20:13;;;;;;;28.50;14.60;;;;;;;-0.74;52.58;97680.61;107980;1271;41075;-72
2022/03/14 00:22:48;;;;;;;27.00;15.50;;;;;;;-0.66;52.61;97682.41;108158;1270;42349;-73
2022/03/14 00:25:19;;;;;;;25.80;14.70;;;;;;;-0.64;52.59;97678.38;108081;1271;41228;-73
2022/03/14 00:27:50;;;;;;;30.70;15.10;;;;;;;-0.66;52.84;97680.48;108152;1271;30215;-73
2022/03/14 00:30:21;;;;;;;33.10;16.90;;;;;;;-0.66;52.89;97680.00;108119;1270;31696;-73
2022/03/14 00:32:52;;;;;;;30.90;17.80;;;;;;;-0.69;53.10;97677.73;108072;1270;31949;-73
2022/03/14 00:35:23;;;;;;;32.90;16.70;;;;;;;-0.71;53.18;97677.51;108092;1271;37941;-73
2022/03/14 00:37:55;;;;;;;34.00;18.20;;;;;;;-0.80;53.11;97678.02;108109;1271;39911;-73
2022/03/14 00:40:26;;;;;;;34.00;18.20;;;;;;;-0.85;53.30;97678.29;107959;1270;43614;-72
2022/03/14 00:42:57;;;;;;;32.40;17.00;;;;;;;-0.89;53.57;97677.71;108039;1271;46541;-73
2022/03/14 00:45:28;;;;;;;30.20;17.60;;;;;;;-0.98;53.50;97684.99;108026;1270;41525;-72
2022/03/14 00:47:58;;;;;;;35.50;16.60;;;;;;;-1.10;53.47;97683.11;107988;1271;40183;-73
2022/03/14 00:50:30;;;;;;;31.30;16.10;;;;;;;-1.17;53.54;97682.36;108101;1271;37136;-73
2022/03/14 00:53:01;;;;;;;36.10;19.30;;;;;;;-1.17;53.86;97683.40;108087;1271;50484;-73
2022/03/14 00:55:31;;;;;;;32.10;17.20;;;;;;;-1.16;53.74;97683.52;108042;1270;37715;-73
2022/03/14 00:58:02;;;;;;;30.70;18.30;;;;;;;-1.20;53.80;97687.04;108082;1270;38005;-73
2022/03/14 01:00:33;;;;;;;30.20;17.10;;;;;;;-1.24;53.79;97687.83;107990;1271;39488;-73
2022/03/14 01:03:04;;;;;;;32.20;17.70;;;;;;;-1.29;53.66;97690.30;108018;1271;38718;-73
2022/03/14 01:05:36;;;;;;;33.20;18.10;;;;;;;-1.34;54.11;97691.75;108047;1271;39973;-73
2022/03/14 01:08:08;;;;;;;29.70;15.50;;;;;;;-1.35;54.31;97691.36;108003;1270;43847;-73
2022/03/14 01:10:39;;;;;;;26.90;16.30;;;;;;;-1.37;54.54;97692.81;107983;1270;82074;-73
2022/03/14 01:13:11;;;;;;;25.70;15.20;;;;;;;-1.33;54.42;97693.01;108091;1271;39680;-73
2022/03/14 01:15:42;;;;;;;23.90;14.50;;;;;;;-1.27;54.39;97695.29;108130;1271;44796;-73
2022/03/14 01:18:13;;;;;;;32.80;15.20;;;;;;;-1.24;54.40;97698.27;108086;1271;35336;-73
2022/03/14 01:20:44;;;;;;;22.50;13.10;;;;;;;-1.27;54.33;97699.23;107981;1271;36411;-73
2022/03/14 01:23:15;;;;;;;27.30;13.20;;;;;;;-1.28;54.58;97698.52;108039;1271;47276;-73
2022/03/14 01:25:46;;;;;;;24.10;13.80;;;;;;;-1.32;54.63;97693.61;108028;1270;40197;-74
2022/03/14 01:28:18;;;;;;;27.20;15.00;;;;;;;-1.36;54.98;97696.55;108099;1271;32267;-73
2022/03/14 01:30:48;;;;;;;29.70;14.60;;;;;;;-1.42;55.21;97700.55;108018;1271;34662;-73
2022/03/14 01:33:19;;;;;;;23.30;13.20;;;;;;;-1.37;55.07;97700.14;107913;1269;41092;-73
2022/03/14 01:35:50;;;;;;;22.50;13.00;;;;;;;-1.36;55.24;97703.77;107916;1271;43101;-73
2022/03/14 01:38:21;;;;;;;27.20;13.50;;;;;;;-1.37;55.08;97704.06;108056;1271;33823;-73
2022/03/14 01:40:52;;;;;;;23.40;13.80;;;;;;;-1.43;54.94;97704.77;108058;1271;28225;-73
2022/03/14 01:43:25;;;;;;;30.80;16.30;;;;;;;-1.50;55.14;97698.97;108019;1270;64510;-73
2022/03/14 01:45:58;;;;;;;26.60;14.60;;;;;;;-1.54;55.14;97707.79;108036;1270;34704;-73
2022/03/14 01:48:29;;;;;;;26.80;13.80;;;;;;;-1.56;55.01;97707.94;108111;1271;29606;-73
2022/03/14 01:51:01;;;;;;;26.30;14.40;;;;;;;-1.52;55.20;97707.87;108039;1271;41124;-72
2022/03/14 01:53:33;;;;;;;21.50;12.30;;;;;;;-1.46;55.06;97710.48;108073;1271;38897;-73
2022/03/14 01:56:06;;;;;;;25.60;13.80;;;;;;;-1.32;54.76;97713.54;108057;1270;41548;-73
2022/03/14 01:58:37;;;;;;;25.50;13.40;;;;;;;-1.28;54.60;97712.00;108002;1271;33362;-73
2022/03/14 02:01:08;;;;;;;20.10;10.80;;;;;;;-1.21;54.38;97711.23;108053;1270;34434;-73
2022/03/14 02:03:40;;;;;;;22.00;12.20;;;;;;;-1.15;54.18;97717.48;108022;1271;40505;-73
2022/03/14 02:06:12;;;;;;;21.30;10.30;;;;;;;-1.10;54.07;97713.81;108134;1270;34952;-72
2022/03/14 02:08:43;;;;;;;15.10;9.30;;;;;;;-1.03;53.85;97717.44;108039;1271;37658;-73
2022/03/14 02:11:14;;;;;;;17.80;9.40;;;;;;;-0.94;53.49;97717.50;108046;1271;29273;-72
2022/03/14 02:13:44;;;;;;;19.20;9.40;;;;;;;-0.78;53.27;97716.16;108049;1271;33913;-72
2022/03/14 02:16:15;;;;;;;14.00;7.50;;;;;;;-0.60;53.04;97718.13;107980;1271;40441;-73
2022/03/14 02:18:46;;;;;;;16.60;7.90;;;;;;;-0.48;52.22;97715.11;107927;1271;40272;-74
2022/03/14 02:21:17;;;;;;;13.30;7.40;;;;;;;-0.37;51.98;97718.20;108002;1270;35552;-73
2022/03/14 02:23:48;;;;;;;12.60;5.40;;;;;;;-0.23;51.65;97721.25;108035;1271;33804;-73
2022/03/14 02:26:20;;;;;;;13.80;7.40;;;;;;;-0.05;51.43;97723.46;108078;1270;30486;-73
2022/03/14 02:28:51;;;;;;;15.10;7.90;;;;;;;0.03;51.11;97720.27;108091;1270;39379;-73
2022/03/14 02:31:23;;;;;;;14.10;7.60;;;;;;;0.08;50.62;97727.89;107976;1271;34600;-72
2022/03/14 02:33:54;;;;;;;15.40;7.20;;;;;;;0.24;50.07;97724.14;108015;1271;38085;-72
2022/03/14 02:36:25;;;;;;;15.10;8.10;;;;;;;0.36;49.78;97725.62;107991;1270;29046;-72
2022/03/14 02:38:56;;;;;;;16.20;8.40;;;;;;;0.37;49.67;97722.61;108048;1270;39571;-72
2022/03/14 02:41:28;;;;;;;13.80;6.50;;;;;;;0.34;49.29;97723.23;108086;1270;37405;-72
2022/03/14 02:43:59;;;;;;;12.50;6.60;;;;;;;0.41;49.12;97724.11;108085;1271;34667;-72
2022/03/14 02:46:30;;;;;;;11.50;6.50;;;;;;;0.46;48.62;97727.34;107928;1270;39012;-72
2022/03/14 02:49:01;;;;;;;13.60;6.40;;;;;;;0.48;48.48;97723.98;107997;1270;53095;-72
2022/03/14 02:51:34;;;;;;;10.50;5.90;;;;;;;0.52;48.63;97730.66;108069;1271;36364;-72
2022/03/14 02:54:05;;;;;;;16.20;7.90;;;;;;;0.54;48.08;97734.54;107942;1271;35647;-72
2022/03/14 02:56:37;;;;;;;13.90;7.50;;;;;;;0.47;48.32;97733.80;107924;1270;42960;-72
2022/03/14 02:59:09;;;;;;;12.80;7.40;;;;;;;0.35;48.01;97737.13;108018;1271;44467;-72
2022/03/14 03:01:41;;;;;;;12.50;6.80;;;;;;;0.45;47.32;97733.73;108105;1270;41188;-72
2022/03/14 03:04:12;;;;;;;9.00;3.90;;;;;;;0.58;47.52;97736.45;108051;1270;38404;-72
2022/03/14 03:06:42;;;;;;;10.60;6.90;;;;;;;0.67;47.03;97741.00;107996;1269;41354;-72
2022/03/14 03:09:14;;;;;;;14.30;6.50;;;;;;;0.68;46.86;97739.64;108001;1270;31040;-72
2022/03/14 03:11:45;;;;;;;11.30;6.70;;;;;;;0.65;47.11;97744.79;108059;1270;37984;-72
2022/03/14 03:14:16;;;;;;;10.30;6.60;;;;;;;0.55;46.98;97745.26;108022;1270;37614;-72
2022/03/14 03:16:47;;;;;;;10.70;6.20;;;;;;;0.46;47.10;97748.95;107925;1270;40692;-73
2022/03/14 03:19:18;;;;;;;13.10;6.30;;;;;;;0.38;47.35;97752.68;108013;1270;37705;-72
2022/03/14 03:21:49;;;;;;;14.20;7.50;;;;;;;0.36;46.98;97754.31;107973;1270;42163;-72
2022/03/14 03:24:20;;;;;;;14.30;7.40;;;;;;;0.32;47.29;97755.13;108028;1270;43328;-72
2022/03/14 03:26:51;;;;;;;14.00;6.70;;;;;;;0.35;46.97;97757.73;108043;1270;34213;-72
2022/03/14 03:29:22;;;;;;;13.10;7.00;;;;;;;0.43;47.05;97756.80;107940;1270;42709;-72
2022/03/14 03:31:53;;;;;;;8.40;4.80;;;;;;;0.43;46.74;97754.48;108035;1270;32238;-72
2022/03/14 03:34:24;;;;;;;10.20;6.60;;;;;;;0.50;46.46;97757.10;107989;1270;33418;-72
2022/03/14 03:36:55;;;;;;;14.50;6.70;;;;;;;0.55;46.28;97760.55;107980;1270;32674;-72
2022/03/14 03:39:26;;;;;;;10.90;6.00;;;;;;;0.56;46.09;97764.20;107949;1271;57532;-72
2022/03/14 03:41:57;;;;;;;9.40;5.60;;;;;;;0.59;46.27;97768.23;108007;1270;30990;-71
2022/03/14 03:44:29;;;;;;;10.50;6.30;;;;;;;0.62;45.97;97769.26;108058;1270;41269;-71
2022/03/14 03:47:00;;;;;;;10.20;5.80;;;;;;;0.63;45.96;97770.91;107999;1270;30044;-72
2022/03/14 03:49:31;;;;;;;11.20;6.60;;;;;;;0.57;46.06;97774.85;107977;1270;61365;-71
2022/03/14 03:52:02;;;;;;;13.50;7.20;;;;;;;0.48;46.17;97776.79;107934;1270;30235;-72
2022/03/14 03:54:33;;;;;;;8.90;5.80;;;;;;;0.41;46.15;97779.48;107957;1270;32975;-72
2022/03/14 03:57:06;;;;;;;14.40;6.20;;;;;;;0.40;46.02;97780.79;108046;1270;38830;-72
2022/03/14 03:59:37;;;;;;;12.90;6.50;;;;;;;0.46;45.86;97780.23;108110;1270;37565;-71
2022/03/14 04:02:11;;;;;;;8.90;4.70;;;;;;;0.55;45.61;97782.04;107942;1271;55432;-72
2022/03/14 04:04:43;;;;;;;8.60;5.30;;;;;;;0.54;45.79;97783.18;108109;1270;31758;-71
2022/03/14 04:07:16;;;;;;;13.20;5.80;;;;;;;0.48;45.78;97786.03;108063;1270;31521;-72
2022/03/14 04:09:49;;;;;;;12.60;6.70;;;;;;;0.52;45.50;97787.17;107992;1270;55987;-72
2022/03/14 04:12:22;;;;;;;11.80;6.50;;;;;;;0.53;45.45;97789.67;107951;1270;31523;-72
2022/03/14 04:14:56;;;;;;;12.50;6.80;;;;;;;0.53;45.31;97792.23;107964;1270;29681;-72
2022/03/14 04:17:27;;;;;;;12.40;5.90;;;;;;;0.53;45.15;97792.08;107942;1271;31126;-71
2022/03/14 04:20:00;;;;;;;9.80;5.50;;;;;;;0.57;44.84;97791.55;107956;1270;34501;-72
2022/03/14 04:22:31;;;;;;;10.40;6.00;;;;;;;0.62;44.76;97796.03;107906;1270;83272;-72
2022/03/14 04:25:02;;;;;;;7.90;4.20;;;;;;;0.55;44.70;97801.51;107997;1270;39010;-71
2022/03/14 04:27:33;;;;;;;12.00;5.80;;;;;;;0.53;44.69;97803.52;107969;1270;30422;-72
2022/03/14 04:30:05;;;;;;;14.30;6.90;;;;;;;0.53;44.95;97806.77;107977;1270;49054;-71
2022/03/14 04:32:36;;;;;;;11.90;6.50;;;;;;;0.51;44.76;97804.99;108121;1270;42806;-72
2022/03/14 04:35:08;;;;;;;11.60;6.00;;;;;;;0.46;44.75;97805.44;108008;1270;32262;-72
2022/03/14 04:37:40;;;;;;;12.40;5.60;;;;;;;0.46;44.59;97805.39;108188;1269;31302;-72
2022/03/14 04:40:14;;;;;;;5.50;3.80;;;;;;;0.52;44.50;97804.76;107958;1270;40226;-72
2022/03/14 04:42:45;;;;;;;8.00;4.90;;;;;;;0.56;44.54;97801.09;108046;1270;36584;-72
2022/03/14 04:45:16;;;;;;;11.00;6.60;;;;;;;0.61;44.25;97803.52;108055;1270;46198;-72
2022/03/14 04:47:47;;;;;;;11.80;6.80;;;;;;;0.63;44.15;97807.08;108003;1270;33335;-72
2022/03/14 04:50:18;;;;;;;12.50;6.90;;;;;;;0.67;43.56;97812.11;107950;1270;33096;-72
2022/03/14 04:52:49;;;;;;;14.60;7.20;;;;;;;0.76;43.51;97815.05;107981;1270;46878;-72
2022/03/14 04:55:20;;;;;;;12.70;6.60;;;;;;;0.79;43.31;97818.84;107988;1270;36779;-72
2022/03/14 04:57:51;;;;;;;9.50;5.10;;;;;;;0.78;43.45;97820.45;107982;1270;30090;-72
2022/03/14 05:00:23;;;;;;;7.80;4.40;;;;;;;0.75;43.51;97823.02;108004;1270;28947;-72
2022/03/14 05:03:00;;;;;;;14.20;6.10;;;;;;;0.73;43.23;97827.11;108014;1270;31571;-72
2022/03/14 05:05:31;;;;;;;12.60;5.90;;;;;;;0.71;43.39;97828.49;108033;1270;40922;-71
2022/03/14 05:08:03;;;;;;;12.70;6.60;;;;;;;0.71;43.03;97826.95;108039;1270;32698;-72
2022/03/14 05:10:34;;;;;;;10.30;6.20;;;;;;;1.00;43.37;97831.54;107976;1270;34375;-72
2022/03/14 05:13:05;;;;;;;13.70;7.70;;;;;;;1.38;42.90;97835.55;108068;1270;29746;-72
2022/03/14 05:15:37;;;;;;;12.10;7.20;;;;;;;1.82;42.60;97833.20;108051;1270;37485;-72
2022/03/14 05:18:08;;;;;;;13.60;6.30;;;;;;;2.25;42.02;97835.10;108114;1270;28529;-72
2022/03/14 05:20:39;;;;;;;11.20;7.20;;;;;;;2.58;40.82;97834.86;108146;1270;29123;-71
2022/03/14 05:23:10;;;;;;;15.50;7.80;;;;;;;2.90;39.83;97826.56;108033;1270;32506;-72
2022/03/14 05:25:41;;;;;;;11.70;7.30;;;;;;;3.21;39.49;97832.63;108117;1270;27717;-72
2022/03/14 05:28:11;;;;;;;12.50;7.70;;;;;;;3.55;39.11;97828.72;108186;1270;32224;-73
2022/03/14 05:30:42;;;;;;;12.30;7.40;;;;;;;3.93;38.80;97828.60;108177;1270;26357;-72
2022/03/14 05:33:13;;;;;;;13.30;7.10;;;;;;;4.28;38.10;97826.45;108142;1270;27900;-72
2022/03/14 05:35:44;;;;;;;14.40;8.20;;;;;;;4.53;37.48;97821.48;108147;1270;31816;-72
2022/03/14 05:38:16;;;;;;;13.50;8.80;;;;;;;4.87;36.81;97820.34;108125;1270;29180;-72
2022/03/14 05:40:47;;;;;;;13.00;8.50;;;;;;;5.14;36.36;97822.48;108148;1270;32738;-74
2022/03/14 05:43:18;;;;;;;11.00;7.50;;;;;;;5.38;36.10;97823.73;108111;1270;41684;-73
2022/03/14 05:45:49;;;;;;;11.90;7.60;;;;;;;5.77;36.18;97824.52;108026;1270;38829;-72
2022/03/14 05:48:20;;;;;;;12.20;8.30;;;;;;;6.33;35.62;97830.13;107934;1270;40676;-73
2022/03/14 05:50:51;;;;;;;11.80;7.60;;;;;;;6.59;34.65;97831.48;108059;1270;29951;-73
2022/03/14 05:53:22;;;;;;;11.90;8.10;;;;;;;7.05;34.93;97828.71;108024;1270;38610;-72
2022/03/14 05:55:53;;;;;;;12.70;7.60;;;;;;;7.62;34.52;97829.02;108003;1270;32822;-73
2022/03/14 05:58:24;;;;;;;13.00;8.50;;;;;;;7.81;32.52;97829.98;108057;1270;29298;-72
2022/03/14 06:00:55;;;;;;;14.50;9.30;;;;;;;8.00;33.13;97835.54;108003;1269;25188;-72
2022/03/14 06:03:25;;;;;;;10.90;8.20;;;;;;;8.49;32.89;97830.19;107975;1270;41774;-72
2022/03/14 06:05:57;;;;;;;13.20;8.50;;;;;;;8.79;31.91;97830.34;108029;1270;51298;-73
2022/03/14 06:08:28;;;;;;;11.10;8.30;;;;;;;8.93;30.72;97828.27;108059;1270;30434;-73
2022/03/14 06:10:59;;;;;;;11.60;9.40;;;;;;;8.76;29.96;97826.05;108061;1270;30767;-72
2022/03/14 06:13:30;;;;;;;12.60;8.20;;;;;;;8.87;30.31;97829.42;108082;1270;35328;-73
2022/03/14 06:16:01;;;;;;;13.10;9.00;;;;;;;8.87;29.30;97833.59;108019;1270;36604;-72
2022/03/14 06:18:32;;;;;;;11.40;8.20;;;;;;;9.05;30.05;97830.91;108028;1270;42883;-72
2022/03/14 06:21:03;;;;;;;12.40;8.40;;;;;;;9.28;29.30;97834.75;108063;1270;42090;-72
2022/03/14 06:23:35;;;;;;;13.80;9.50;;;;;;;9.30;28.62;97828.64;108114;1270;37681;-72
2022/03/14 06:26:06;;;;;;;13.50;9.80;;;;;;;9.41;29.03;97834.84;108113;1269;31481;-72
2022/03/14 06:28:37;;;;;;;12.70;9.00;;;;;;;9.89;28.96;97838.70;108058;1269;38084;-73
2022/03/14 06:31:08;;;;;;;11.40;7.90;;;;;;;10.04;27.66;97834.52;108147;1270;29749;-72
2022/03/14 06:33:39;;;;;;;13.60;8.50;;;;;;;9.50;26.95;97835.73;108092;1269;101393;-73
2022/03/14 06:36:10;;;;;;;14.00;10.10;;;;;;;9.29;28.01;97845.87;107977;1270;36609;-72
2022/03/14 06:38:41;;;;;;;13.70;9.60;;;;;;;9.78;27.50;97843.36;107972;1270;88886;-73
2022/03/14 06:41:12;;;;;;;12.40;9.50;;;;;;;9.88;27.52;97843.89;108065;1270;28025;-73
2022/03/14 06:43:43;;;;;;;13.70;10.20;;;;;;;10.27;27.61;97850.06;108038;1270;34780;-73
2022/03/14 06:46:14;;;;;;;14.50;9.50;;;;;;;10.63;26.79;97853.86;108047;1270;36164;-73
2022/03/14 06:48:46;;;;;;;13.60;10.10;;;;;;;10.60;26.96;97858.86;108062;1270;29529;-72
2022/03/14 06:51:17;;;;;;;12.10;8.30;;;;;;;11.50;27.29;97859.34;107999;1270;30041;-73
2022/03/14 06:53:49;;;;;;;12.80;9.50;;;;;;;11.84;25.96;97855.64;107985;1270;41153;-72
2022/03/14 06:56:20;;;;;;;12.40;10.10;;;;;;;11.57;25.65;97864.55;108093;1268;31315;-73
2022/03/14 06:58:52;;;;;;;11.70;9.50;;;;;;;11.38;25.25;97864.80;108128;1270;36818;-73
2022/03/14 07:01:24;;;;;;;12.60;9.00;;;;;;;10.87;25.04;97870.88;107976;1270;38362;-73
2022/03/14 07:03:55;;;;;;;12.90;10.70;;;;;;;10.66;25.45;97864.80;108118;1270;32529;-73
2022/03/14 07:06:26;;;;;;;12.30;9.10;;;;;;;10.87;26.01;97866.58;107989;1270;36404;-73
2022/03/14 07:08:57;;;;;;;12.40;9.50;;;;;;;11.14;25.09;97861.20;108117;1270;31951;-73
2022/03/14 07:11:28;;;;;;;15.50;11.00;;;;;;;10.93;24.87;97862.81;108091;1270;29735;-73
2022/03/14 07:14:00;;;;;;;12.00;8.80;;;;;;;10.71;24.91;97866.79;108057;1270;29731;-73
2022/03/14 07:16:31;;;;;;;13.10;10.20;;;;;;;10.52;25.18;97870.15;107974;1271;32053;-73
2022/03/14 07:19:02;;;;;;;12.60;9.60;;;;;;;10.82;25.79;97870.61;108115;1269;35733;-73
2022/03/14 07:21:34;;;;;;;12.30;10.70;;;;;;;11.13;24.74;97864.30;108138;1270;34721;-73
2022/03/14 07:24:05;;;;;;;19.10;10.20;;;;;;;11.38;25.49;97877.02;108132;1270;30560;-73
2022/03/14 07:26:36;;;;;;;14.10;9.60;;;;;;;12.09;25.24;97872.06;108074;1270;31028;-72
2022/03/14 07:29:07;;;;;;;12.40;9.60;;;;;;;12.49;24.45;97865.47;108106;1270;32560;-73
2022/03/14 07:31:38;;;;;;;12.80;10.30;;;;;;;12.22;24.28;97872.15;107997;1270;43006;-73
2022/03/14 07:34:09;;;;;;;14.20;11.40;;;;;;;12.81;25.02;97874.00;108036;1270;38509;-73
2022/03/14 07:36:42;;;;;;;11.50;9.80;;;;;;;13.84;24.72;97871.34;108164;1268;30503;-73
2022/03/14 07:39:13;;;;;;;12.50;10.50;;;;;;;14.08;23.78;97865.73;108163;1270;30883;-73
2022/03/14 07:41:44;;;;;;;13.20;10.70;;;;;;;14.51;23.78;97869.63;108040;1270;42693;-73
2022/03/14 07:44:15;;;;;;;12.90;10.60;;;;;;;14.47;23.21;97865.23;108114;1270;37931;-73
2022/03/14 07:46:47;;;;;;;11.90;10.60;;;;;;;14.57;23.72;97868.06;108213;1270;28822;-73
2022/03/14 07:49:20;;;;;;;14.30;11.60;;;;;;;15.15;23.02;97869.23;108145;1270;33480;-75
2022/03/14 07:51:51;;;;;;;12.90;10.90;;;;;;;15.21;23.28;97880.20;108175;1270;31392;-74
2022/03/14 07:54:22;;;;;;;12.90;11.50;;;;;;;16.08;22.92;97877.62;108114;1270;35128;-74
2022/03/14 07:56:53;;;;;;;13.10;10.90;;;;;;;16.78;23.11;97878.43;108066;1270;30957;-74
2022/03/14 07:59:24;;;;;;;12.90;11.40;;;;;;;17.37;22.49;97885.89;108104;1270;30919;-73
2022/03/14 08:01:55;;;;;;;13.20;11.90;;;;;;;17.97;22.60;97887.02;108114;1270;30604;-74
2022/03/14 08:04:26;;;;;;;12.80;11.40;;;;;;;18.24;21.33;97887.02;108053;1270;30843;-74
2022/03/14 08:06:58;;;;;;;13.80;11.50;;;;;;;17.98;21.16;97891.36;108145;1270;27668;-74
2022/03/14 08:09:29;;;;;;;14.00;11.40;;;;;;;18.03;20.51;97897.65;108117;1270;71150;-73
2022/03/14 08:12:00;;;;;;;13.30;11.90;;;;;;;17.60;19.88;97892.63;107995;1270;39787;-74
2022/03/14 08:14:31;;;;;;;12.60;11.30;;;;;;;17.52;20.58;97897.73;108115;1269;32818;-74
2022/03/14 08:17:02;;;;;;;12.60;11.20;;;;;;;18.05;20.24;97899.23;107980;1270;37459;-73
2022/03/14 08:19:34;;;;;;;13.60;12.20;;;;;;;17.79;19.29;97899.59;108028;1270;28887;-73
2022/03/14 08:22:06;;;;;;;15.40;12.20;;;;;;;17.47;20.07;97903.98;107987;1270;36303;-73
2022/03/14 08:24:37;;;;;;;13.20;11.40;;;;;;;17.75;20.49;97897.42;108138;1270;30371;-74
2022/03/14 08:27:08;;;;;;;13.90;12.20;;;;;;;18.05;20.11;97898.43;108044;1270;38301;-73
2022/03/14 08:29:39;;;;;;;14.50;11.70;;;;;;;16.99;19.69;97900.27;108049;1270;37504;-73
2022/03/14 08:32:12;;;;;;;13.80;12.30;;;;;;;17.12;20.90;97900.78;108109;1269;38918;-73
2022/03/14 08:34:44;;;;;;;15.90;12.80;;;;;;;17.82;20.83;97897.08;108010;1270;28400;-73
2022/03/14 08:37:15;;;;;;;14.70;11.30;;;;;;;18.27;19.66;97903.02;108035;1270;37342;-73
2022/03/14 08:39:48;;;;;;;11.50;9.10;;;;;;;18.09;19.64;97899.05;108075;1270;71454;-73
2022/03/14 08:42:19;;;;;;;12.80;9.20;;;;;;;18.06;19.69;97896.21;108084;1270;32509;-74
2022/03/14 08:44:50;;;;;;;14.40;9.90;;;;;;;18.35;20.06;97895.11;108143;1270;31978;-73
2022/03/14 08:47:21;;;;;;;12.00;9.10;;;;;;;18.24;19.47;97893.30;108124;1270;31708;-74
2022/03/14 08:49:52;;;;;;;14.20;9.30;;;;;;;17.65;20.32;97895.67;108037;1270;41129;-74
2022/03/14 08:52:22;;;;;;;14.00;9.30;;;;;;;17.94;20.43;97896.84;108017;1270;39703;-75
2022/03/14 08:54:53;;;;;;;13.60;8.80;;;;;;;18.13;19.53;97899.63;108111;1270;34037;-74
2022/03/14 08:57:24;;;;;;;12.50;8.50;;;;;;;17.64;19.34;97900.09;108050;1270;36139;-74
2022/03/14 08:59:55;;;;;;;10.30;8.20;;;;;;;17.26;19.70;97898.81;108019;1270;36622;-73
2022/03/14 09:02:26;;;;;;;11.80;8.10;;;;;;;17.03;20.15;97901.34;108035;1270;30774;-73
2022/03/14 09:04:57;;;;;;;11.50;7.80;;;;;;;16.75;19.67;97894.75;108005;1270;39462;-73
2022/03/14 09:07:31;;;;;;;10.90;7.20;;;;;;;15.88;19.64;97901.44;108128;1270;33949;-73
2022/03/14 09:10:05;;;;;;;10.10;6.80;;;;;;;15.72;20.55;97904.37;108120;1270;37863;-72
2022/03/14 09:12:37;;;;;;;10.10;6.80;;;;;;;15.85;20.87;97906.34;108148;1270;30152;-73
2022/03/14 09:15:11;;;;;;;10.90;7.10;;;;;;;15.67;20.76;97904.77;108114;1270;28443;-73
2022/03/14 09:17:54;;;;;;;11.50;7.60;;;;;;;14.74;20.99;97902.52;108084;1268;36640;-73
2022/03/14 09:20:26;;;;;;;9.90;7.00;;;;;;;13.76;21.64;97907.75;108030;1270;64103;-73
2022/03/14 09:22:57;;;;;;;10.90;7.70;;;;;;;13.04;22.31;97911.30;107937;1270;37780;-73
2022/03/14 09:25:29;;;;;;;12.40;7.70;;;;;;;12.47;22.65;97912.50;107943;1269;44369;-73
2022/03/14 09:28:00;;;;;;;11.70;7.90;;;;;;;12.15;23.11;97915.91;108066;1270;40653;-73
2022/03/14 09:30:31;;;;;;;11.90;8.30;;;;;;;11.97;23.46;97921.10;108078;1270;46246;-73
2022/03/14 09:33:04;;;;;;;14.00;10.40;;;;;;;11.59;23.76;97917.47;108119;1270;31070;-73
2022/03/14 09:35:35;;;;;;;10.70;7.30;;;;;;;11.38;24.19;97922.73;108052;1270;40377;-73
2022/03/14 09:38:06;;;;;;;12.60;8.00;;;;;;;11.40;24.48;97918.25;108119;1270;33862;-73
2022/03/14 09:40:38;;;;;;;13.50;7.60;;;;;;;11.43;24.56;97919.19;108067;1270;44567;-73
2022/03/14 09:43:10;;;;;;;11.50;7.00;;;;;;;11.42;24.91;97919.49;108113;1270;44859;-73
2022/03/14 09:45:45;;;;;;;11.80;7.60;;;;;;;11.43;24.34;97918.76;108103;1270;29591;-73
2022/03/14 09:48:17;;;;;;;12.50;7.70;;;;;;;11.44;24.88;97916.85;108079;1270;31584;-73
2022/03/14 09:50:48;;;;;;;11.30;7.20;;;;;;;11.53;25.07;97913.02;108034;1270;37850;-74
2022/03/14 09:53:20;;;;;;;9.30;6.60;;;;;;;11.65;25.18;97911.35;108110;1270;52762;-73
2022/03/14 09:55:51;;;;;;;11.60;7.30;;;;;;;11.62;25.05;97912.66;108151;1269;25612;-73
2022/03/14 09:58:23;;;;;;;9.70;7.00;;;;;;;11.62;25.05;97909.85;108030;1270;38010;-73
2022/03/14 10:00:54;;;;;;;11.40;7.00;;;;;;;11.52;24.98;97911.45;108061;1270;34037;-73
2022/03/14 10:03:25;;;;;;;12.90;8.10;;;;;;;11.60;25.39;97913.48;108086;1270;32830;-73
2022/03/14 10:05:56;;;;;;;10.80;7.20;;;;;;;11.78;25.66;97916.95;108122;1269;37854;-73
2022/03/14 10:08:27;;;;;;;11.00;7.20;;;;;;;11.90;25.40;97914.52;108103;1270;29040;-74
2022/03/14 10:10:58;;;;;;;10.40;6.30;;;;;;;11.85;25.27;97909.27;108081;1270;32110;-74
2022/03/14 10:13:33;;;;;;;11.60;8.00;;;;;;;11.97;25.44;97908.83;108057;1270;57561;-73
2022/03/14 10:16:04;;;;;;;11.10;7.00;;;;;;;12.01;25.30;97908.70;108180;1270;28049;-73
2022/03/14 10:18:52;;;;;;;11.30;7.30;;;;;;;12.09;24.95;97906.30;108113;1269;42134;-73
2022/03/14 10:21:33;;;;;;;10.70;6.90;;;;;;;12.04;25.05;97906.42;108121;1270;32125;-73
2022/03/14 10:24:08;;;;;;;13.90;8.20;;;;;;;12.31;25.51;97903.69;108095;1270;53319;-74
2022/03/14 10:26:42;;;;;;;9.50;6.50;;;;;;;12.37;25.12;97908.40;108050;1270;42263;-73
2022/03/14 10:29:14;;;;;;;10.80;7.60;;;;;;;12.54;25.16;97903.08;108009;1270;40675;-74
2022/03/14 10:31:47;;;;;;;9.40;6.60;;;;;;;12.63;25.41;97906.94;107994;1270;35695;-74
2022/03/14 10:34:19;;;;;;;10.10;6.70;;;;;;;12.76;24.64;97907.78;108061;1270;39694;-74
2022/03/14 10:36:53;;;;;;;12.10;7.00;;;;;;;12.54;24.86;97905.83;108043;1270;42155;-75
2022/03/14 10:39:26;;;;;;;10.80;6.50;;;;;;;12.61;25.30;97904.73;108121;1270;35695;-74
2022/03/14 10:42:08;;;;;;;11.10;6.90;;;;;;;12.66;25.36;97904.02;108111;1270;42323;-74
2022/03/14 10:44:40;;;;;;;10.80;6.70;;;;;;;12.79;24.99;97904.92;108007;1270;40818;-74
2022/03/14 10:47:13;;;;;;;10.00;5.80;;;;;;;12.74;25.06;97905.13;108068;1270;40649;-74
2022/03/14 10:49:45;;;;;;;9.50;5.90;;;;;;;12.69;24.93;97895.58;108030;1270;33536;-74
2022/03/14 10:52:18;;;;;;;11.80;7.30;;;;;;;12.45;25.00;97898.19;108187;1270;30611;-74
2022/03/14 10:54:50;;;;;;;9.30;6.60;;;;;;;12.46;25.51;97899.88;107985;1270;51948;-75
2022/03/14 10:57:25;;;;;;;12.40;6.60;;;;;;;12.58;24.95;97893.94;108041;1270;27393;-74
2022/03/14 10:59:57;;;;;;;9.40;6.00;;;;;;;12.57;25.20;97893.19;108074;1270;29787;-74
2022/03/14 11:02:31;;;;;;;11.00;6.70;;;;;;;12.64;25.23;97894.11;108013;1270;36456;-74
2022/03/14 11:05:05;;;;;;;9.10;6.30;;;;;;;12.77;25.39;97895.77;108013;1270;41324;-75
2022/03/14 11:07:38;;;;;;;10.40;6.60;;;;;;;12.71;25.08;97897.93;108102;1270;47988;-75
2022/03/14 11:10:09;;;;;;;8.30;5.90;;;;;;;12.74;25.20;97892.77;107788;1270;190667;-75
2022/03/14 11:12:40;;;;;;;9.10;6.40;;;;;;;12.72;25.15;97893.04;108070;1270;36667;-75
2022/03/14 11:15:13;;;;;;;10.70;6.00;;;;;;;12.83;25.40;97890.04;108048;1270;34978;-75
2022/03/14 11:17:44;;;;;;;8.90;5.80;;;;;;;12.99;25.56;97890.57;108115;1270;29697;-74
2022/03/14 11:20:16;;;;;;;10.00;6.20;;;;;;;13.19;25.74;97886.64;108059;1270;39528;-74
2022/03/14 11:22:48;;;;;;;10.60;8.00;;;;;;;13.36;25.48;97880.19;108033;1270;30575;-75
2022/03/14 11:25:19;;;;;;;10.70;6.30;;;;;;;13.43;24.87;97878.76;108029;1270;32156;-75
2022/03/14 11:27:53;;;;;;;9.60;5.50;;;;;;;13.37;24.90;97878.48;108093;1270;57179;-75
2022/03/14 11:30:26;;;;;;;6.70;4.20;;;;;;;13.40;24.57;97878.07;108014;1270;39278;-75
2022/03/14 11:32:58;;;;;;;7.50;4.30;;;;;;;13.39;24.34;97873.55;107945;1270;39969;-75
2022/03/14 11:35:30;;;;;;;7.00;4.30;;;;;;;13.49;24.54;97873.91;108024;1270;50499;-75
2022/03/14 11:38:04;;;;;;;5.70;3.60;;;;;;;13.50;24.37;97868.16;107934;1269;68583;-75
2022/03/14 11:40:37;;;;;;;8.10;4.70;;;;;;;13.36;23.78;97868.73;107940;1270;44040;-75